UAL1677 KEWR-KDEN
Flight info
| Callsign | UAL1677 |
|---|---|
| Flight time | N/A |
| Altitude | 34000 |
| Route | COATE Q436 RAAKK Q438 RUBYY DBQ JORDY OBH BRWRY LAWGR4 |
| Aircraft | B739/M-SDE2E3FGHIRWXY/LB1 |
Departure
| Time | N/A |
|---|---|
| Airport | Newark Liberty International Airport (KEWR) |
Arrival
| Time | 2026-05-03 23:41 |
|---|---|
| Airport | Denver International Airport (KDEN) |
| Time | Latitude | Longitude | Altitude | Speed | Heading |
|---|---|---|---|---|---|
| 2026-05-03 20:15 | 41.67552 | -76.18538 | 33002 ft | 404 kts | 289° |
| 2026-05-03 20:15 | 41.68535 | -76.22063 | 33229 ft | 405 kts | 289° |
| 2026-05-03 20:15 | 41.69527 | -76.25600 | 33429 ft | 406 kts | 289° |
| 2026-05-03 20:15 | 41.70523 | -76.29132 | 33661 ft | 406 kts | 289° |
| 2026-05-03 20:16 | 41.71521 | -76.32666 | 33870 ft | 407 kts | 289° |
| 2026-05-03 20:16 | 41.73525 | -76.39785 | 33931 ft | 411 kts | 289° |
| 2026-05-03 20:17 | 41.75530 | -76.46938 | 33947 ft | 415 kts | 289° |
| 2026-05-03 20:17 | 41.77577 | -76.54266 | 33946 ft | 419 kts | 289° |
| 2026-05-03 20:18 | 41.79594 | -76.61557 | 33937 ft | 421 kts | 289° |
| 2026-05-03 20:18 | 41.81627 | -76.68939 | 33941 ft | 423 kts | 289° |
| 2026-05-03 20:19 | 41.83657 | -76.76327 | 33935 ft | 422 kts | 289° |
| 2026-05-03 20:19 | 41.85683 | -76.83718 | 33929 ft | 421 kts | 289° |
| 2026-05-03 20:20 | 41.87697 | -76.91085 | 33933 ft | 420 kts | 289° |
| 2026-05-03 20:20 | 41.89694 | -76.98432 | 33938 ft | 419 kts | 289° |
| 2026-05-03 20:21 | 41.91674 | -77.05770 | 33943 ft | 417 kts | 289° |
| 2026-05-03 20:21 | 41.93644 | -77.13095 | 33940 ft | 417 kts | 289° |
| 2026-05-03 20:22 | 41.95607 | -77.20412 | 33953 ft | 416 kts | 289° |
| 2026-05-03 20:22 | 41.97566 | -77.27733 | 33950 ft | 416 kts | 289° |
| 2026-05-03 20:23 | 41.99521 | -77.35058 | 33963 ft | 416 kts | 289° |
| 2026-05-03 20:23 | 42.01473 | -77.42388 | 33957 ft | 416 kts | 289° |
| 2026-05-03 20:24 | 42.03462 | -77.49703 | 33965 ft | 417 kts | 289° |
| 2026-05-03 20:24 | 42.05464 | -77.57029 | 33952 ft | 417 kts | 289° |
| 2026-05-03 20:25 | 42.07455 | -77.64365 | 33955 ft | 417 kts | 289° |
| 2026-05-03 20:25 | 42.09441 | -77.71710 | 33952 ft | 418 kts | 289° |
| 2026-05-03 20:26 | 42.11426 | -77.79075 | 33942 ft | 419 kts | 289° |
| 2026-05-03 20:26 | 42.13396 | -77.86406 | 33940 ft | 419 kts | 289° |
| 2026-05-03 20:27 | 42.15374 | -77.93792 | 33931 ft | 419 kts | 289° |
| 2026-05-03 20:27 | 42.17349 | -78.01184 | 33939 ft | 419 kts | 289° |
| 2026-05-03 20:28 | 42.19313 | -78.08569 | 33935 ft | 418 kts | 289° |
| 2026-05-03 20:28 | 42.21273 | -78.15949 | 33946 ft | 418 kts | 289° |
| 2026-05-03 20:29 | 42.23229 | -78.23337 | 33954 ft | 418 kts | 289° |
| 2026-05-03 20:29 | 42.25158 | -78.30727 | 33952 ft | 417 kts | 288° |
| 2026-05-03 20:30 | 42.26998 | -78.38134 | 33958 ft | 416 kts | 288° |
| 2026-05-03 20:30 | 42.28825 | -78.45554 | 33959 ft | 416 kts | 288° |
| 2026-05-03 20:31 | 42.30653 | -78.52963 | 33961 ft | 416 kts | 288° |
| 2026-05-03 20:31 | 42.32171 | -78.59115 | 33962 ft | 415 kts | 288° |
| 2026-05-03 20:32 | 42.33982 | -78.66472 | 33946 ft | 408 kts | 288° |
| 2026-05-03 20:32 | 42.35751 | -78.73683 | 33951 ft | 401 kts | 288° |
| 2026-05-03 20:33 | 42.37508 | -78.80872 | 33972 ft | 405 kts | 288° |
| 2026-05-03 20:33 | 42.39286 | -78.88158 | 33968 ft | 410 kts | 288° |
| 2026-05-03 20:34 | 42.41078 | -78.95507 | 33951 ft | 412 kts | 288° |
| 2026-05-03 20:34 | 42.42883 | -79.02874 | 33954 ft | 413 kts | 288° |
| 2026-05-03 20:35 | 42.44685 | -79.10254 | 33948 ft | 413 kts | 288° |
| 2026-05-03 20:35 | 42.46478 | -79.17624 | 33942 ft | 412 kts | 288° |
| 2026-05-03 20:36 | 42.48248 | -79.24924 | 33931 ft | 402 kts | 288° |
| 2026-05-03 20:36 | 42.49997 | -79.32165 | 33953 ft | 407 kts | 288° |
| 2026-05-03 20:37 | 42.51766 | -79.39511 | 33957 ft | 413 kts | 288° |
| 2026-05-03 20:37 | 42.53546 | -79.46923 | 33945 ft | 414 kts | 288° |
| 2026-05-03 20:38 | 42.55329 | -79.54368 | 33959 ft | 417 kts | 288° |
| 2026-05-03 20:38 | 42.57116 | -79.61861 | 33952 ft | 418 kts | 288° |
| 2026-05-03 20:39 | 42.58929 | -79.69378 | 33947 ft | 419 kts | 288° |
| 2026-05-03 20:39 | 42.60717 | -79.76856 | 33944 ft | 419 kts | 285° |
| 2026-05-03 20:40 | 42.61538 | -79.84672 | 33957 ft | 418 kts | 274° |
| 2026-05-03 20:40 | 42.61830 | -79.92416 | 33937 ft | 406 kts | 275° |
| 2026-05-03 20:41 | 42.62137 | -80.00024 | 33935 ft | 402 kts | 275° |
| 2026-05-03 20:41 | 42.62457 | -80.07604 | 33954 ft | 404 kts | 275° |
| 2026-05-03 20:42 | 42.62782 | -80.15270 | 33958 ft | 410 kts | 275° |
| 2026-05-03 20:42 | 42.63105 | -80.23030 | 33942 ft | 412 kts | 275° |
| 2026-05-03 20:43 | 42.63425 | -80.30815 | 33941 ft | 414 kts | 275° |
| 2026-05-03 20:43 | 42.63737 | -80.38620 | 33942 ft | 414 kts | 275° |
| 2026-05-03 20:44 | 42.64045 | -80.46418 | 33940 ft | 413 kts | 275° |
| 2026-05-03 20:44 | 42.64342 | -80.54212 | 33923 ft | 413 kts | 274° |
| 2026-05-03 20:45 | 42.64614 | -80.61979 | 33934 ft | 411 kts | 274° |
| 2026-05-03 20:45 | 42.64879 | -80.69671 | 33930 ft | 410 kts | 274° |
| 2026-05-03 20:46 | 42.65142 | -80.77387 | 33938 ft | 410 kts | 274° |
| 2026-05-03 20:46 | 42.65401 | -80.85142 | 33932 ft | 412 kts | 274° |
| 2026-05-03 20:47 | 42.65656 | -80.92944 | 33925 ft | 415 kts | 274° |
| 2026-05-03 20:47 | 42.65907 | -81.00782 | 33919 ft | 416 kts | 274° |
| 2026-05-03 20:48 | 42.66149 | -81.08585 | 33905 ft | 410 kts | 274° |
| 2026-05-03 20:48 | 42.66387 | -81.16264 | 33912 ft | 405 kts | 274° |
| 2026-05-03 20:49 | 42.66617 | -81.23895 | 33912 ft | 403 kts | 274° |
| 2026-05-03 20:49 | 42.67191 | -81.31425 | 33919 ft | 400 kts | 280° |
| 2026-05-03 20:50 | 42.68084 | -81.38906 | 33914 ft | 401 kts | 281° |
| 2026-05-03 20:50 | 42.68975 | -81.46412 | 33913 ft | 404 kts | 280° |
| 2026-05-03 20:51 | 42.69850 | -81.53967 | 33908 ft | 406 kts | 280° |
| 2026-05-03 20:51 | 42.70711 | -81.61514 | 33907 ft | 408 kts | 280° |
| 2026-05-03 20:52 | 42.71578 | -81.69157 | 33903 ft | 410 kts | 280° |
| 2026-05-03 20:52 | 42.72441 | -81.76819 | 33902 ft | 410 kts | 280° |
| 2026-05-03 20:53 | 42.73297 | -81.84490 | 33901 ft | 410 kts | 280° |
| 2026-05-03 20:53 | 42.74149 | -81.92154 | 33891 ft | 409 kts | 280° |
| 2026-05-03 20:54 | 42.74993 | -81.99792 | 33882 ft | 405 kts | 280° |
| 2026-05-03 20:54 | 42.76226 | -82.11030 | 33879 ft | 397 kts | 280° |
| 2026-05-03 20:55 | 42.77034 | -82.18443 | 33876 ft | 394 kts | 280° |
| 2026-05-03 20:55 | 42.77829 | -82.25805 | 33877 ft | 393 kts | 280° |
| 2026-05-03 20:56 | 42.78620 | -82.33160 | 33874 ft | 393 kts | 280° |
| 2026-05-03 20:56 | 42.79407 | -82.40528 | 33870 ft | 395 kts | 280° |
| 2026-05-03 20:57 | 42.80202 | -82.48005 | 33879 ft | 402 kts | 280° |
| 2026-05-03 20:57 | 42.80945 | -82.55600 | 33856 ft | 405 kts | 280° |
| 2026-05-03 20:58 | 42.81901 | -82.63148 | 33860 ft | 404 kts | 282° |
| 2026-05-03 20:58 | 42.82961 | -82.70621 | 33866 ft | 404 kts | 283° |
| 2026-05-03 20:59 | 42.84007 | -82.78147 | 33865 ft | 404 kts | 282° |
| 2026-05-03 20:59 | 42.85028 | -82.85669 | 33861 ft | 403 kts | 282° |
| 2026-05-03 21:00 | 42.85870 | -82.91961 | 33863 ft | 402 kts | 282° |
| 2026-05-03 21:00 | 42.87033 | -83.00663 | 33870 ft | 401 kts | 282° |
| 2026-05-03 21:01 | 42.88027 | -83.08144 | 33870 ft | 400 kts | 282° |
| 2026-05-03 21:01 | 42.89011 | -83.15602 | 33875 ft | 399 kts | 282° |
| 2026-05-03 21:02 | 42.89990 | -83.23036 | 33878 ft | 397 kts | 282° |
| 2026-05-03 21:02 | 42.90950 | -83.30435 | 33877 ft | 396 kts | 281° |
| 2026-05-03 21:03 | 42.91676 | -83.37875 | 33886 ft | 395 kts | 279° |
| 2026-05-03 21:03 | 42.92305 | -83.45311 | 33871 ft | 395 kts | 279° |
| 2026-05-03 21:04 | 42.92940 | -83.52743 | 33864 ft | 394 kts | 279° |
| 2026-05-03 21:04 | 42.93586 | -83.60170 | 33865 ft | 395 kts | 279° |
| 2026-05-03 21:05 | 42.94242 | -83.67677 | 33871 ft | 401 kts | 279° |
| 2026-05-03 21:05 | 42.94900 | -83.75265 | 33869 ft | 404 kts | 279° |
| 2026-05-03 21:06 | 42.95555 | -83.82892 | 33855 ft | 405 kts | 279° |
| 2026-05-03 21:06 | 42.96204 | -83.90513 | 33854 ft | 402 kts | 279° |
| 2026-05-03 21:07 | 42.96842 | -83.98053 | 33862 ft | 398 kts | 279° |
| 2026-05-03 21:07 | 42.97472 | -84.05544 | 33857 ft | 397 kts | 279° |
| 2026-05-03 21:08 | 42.98091 | -84.12971 | 33864 ft | 396 kts | 278° |
| 2026-05-03 21:08 | 42.98708 | -84.20440 | 33859 ft | 396 kts | 278° |
| 2026-05-03 21:09 | 42.99322 | -84.27932 | 33860 ft | 397 kts | 278° |
| 2026-05-03 21:09 | 42.99934 | -84.35447 | 33868 ft | 399 kts | 278° |
| 2026-05-03 21:10 | 43.00542 | -84.42998 | 33875 ft | 400 kts | 278° |
| 2026-05-03 21:10 | 43.01148 | -84.50562 | 33895 ft | 401 kts | 278° |
| 2026-05-03 21:11 | 43.01712 | -84.58162 | 33889 ft | 403 kts | 275° |
| 2026-05-03 21:11 | 43.01349 | -84.65832 | 33892 ft | 406 kts | 267° |
| 2026-05-03 21:12 | 43.00741 | -84.73509 | 33888 ft | 406 kts | 267° |
| 2026-05-03 21:12 | 43.00141 | -84.81186 | 33885 ft | 406 kts | 267° |
| 2026-05-03 21:13 | 42.99551 | -84.88855 | 33892 ft | 406 kts | 267° |
| 2026-05-03 21:13 | 42.98964 | -84.96517 | 33865 ft | 406 kts | 267° |
| 2026-05-03 21:14 | 42.98376 | -85.04162 | 33885 ft | 405 kts | 267° |
| 2026-05-03 21:14 | 42.97784 | -85.11795 | 33894 ft | 404 kts | 267° |
| 2026-05-03 21:15 | 42.97186 | -85.19433 | 33888 ft | 404 kts | 267° |
| 2026-05-03 21:15 | 42.96583 | -85.27059 | 33890 ft | 404 kts | 267° |
| 2026-05-03 21:16 | 42.95974 | -85.34692 | 33894 ft | 405 kts | 267° |
| 2026-05-03 21:16 | 42.95360 | -85.42339 | 33883 ft | 405 kts | 267° |
| 2026-05-03 21:17 | 42.94845 | -85.48706 | 33891 ft | 407 kts | 267° |
| 2026-05-03 21:17 | 42.94110 | -85.57714 | 33893 ft | 410 kts | 267° |
| 2026-05-03 21:18 | 42.93469 | -85.65475 | 33890 ft | 413 kts | 267° |
| 2026-05-03 21:18 | 42.92819 | -85.73291 | 33889 ft | 416 kts | 267° |
| 2026-05-03 21:19 | 42.92163 | -85.81105 | 33893 ft | 418 kts | 267° |
| 2026-05-03 21:19 | 42.91497 | -85.88989 | 33893 ft | 419 kts | 267° |
| 2026-05-03 21:20 | 42.90826 | -85.96876 | 33885 ft | 418 kts | 266° |
| 2026-05-03 21:20 | 42.90148 | -86.04748 | 33882 ft | 418 kts | 266° |
| 2026-05-03 21:21 | 42.89465 | -86.12611 | 33882 ft | 417 kts | 266° |
| 2026-05-03 21:21 | 42.88778 | -86.20451 | 33883 ft | 416 kts | 266° |
| 2026-05-03 21:22 | 42.88207 | -86.26949 | 33880 ft | 415 kts | 266° |
| 2026-05-03 21:22 | 42.87514 | -86.34753 | 33885 ft | 414 kts | 266° |
| 2026-05-03 21:23 | 42.86818 | -86.42544 | 33880 ft | 414 kts | 266° |
| 2026-05-03 21:23 | 42.86118 | -86.50319 | 33871 ft | 413 kts | 266° |
| 2026-05-03 21:24 | 42.85413 | -86.58087 | 33871 ft | 413 kts | 266° |
| 2026-05-03 21:24 | 42.84704 | -86.65841 | 33858 ft | 413 kts | 266° |
| 2026-05-03 21:25 | 42.83989 | -86.73608 | 33850 ft | 413 kts | 266° |
| 2026-05-03 21:25 | 42.83269 | -86.81368 | 33844 ft | 413 kts | 266° |
| 2026-05-03 21:26 | 42.82542 | -86.89126 | 33835 ft | 413 kts | 266° |
| 2026-05-03 21:26 | 42.81817 | -86.96801 | 33821 ft | 405 kts | 266° |
| 2026-05-03 21:27 | 42.81095 | -87.04374 | 33826 ft | 405 kts | 266° |
| 2026-05-03 21:27 | 42.80367 | -87.12035 | 33827 ft | 411 kts | 266° |
| 2026-05-03 21:28 | 42.79625 | -87.19754 | 33821 ft | 411 kts | 266° |
| 2026-05-03 21:28 | 42.78877 | -87.27476 | 33814 ft | 412 kts | 266° |
| 2026-05-03 21:29 | 42.78121 | -87.35204 | 33821 ft | 412 kts | 266° |
| 2026-05-03 21:29 | 42.77361 | -87.42930 | 33818 ft | 411 kts | 266° |
| 2026-05-03 21:30 | 42.76597 | -87.50639 | 33812 ft | 410 kts | 266° |
| 2026-05-03 21:30 | 42.75830 | -87.58321 | 33810 ft | 409 kts | 266° |
| 2026-05-03 21:31 | 42.75061 | -87.65976 | 33806 ft | 408 kts | 266° |
| 2026-05-03 21:31 | 42.74293 | -87.73560 | 33811 ft | 407 kts | 266° |
| 2026-05-03 21:32 | 42.73511 | -87.81239 | 33811 ft | 406 kts | 266° |
| 2026-05-03 21:32 | 42.72737 | -87.88801 | 33814 ft | 406 kts | 266° |
| 2026-05-03 21:33 | 42.71947 | -87.96461 | 33815 ft | 406 kts | 266° |
| 2026-05-03 21:33 | 42.71163 | -88.04013 | 33802 ft | 406 kts | 266° |
| 2026-05-03 21:34 | 42.70365 | -88.11623 | 33791 ft | 407 kts | 266° |
| 2026-05-03 21:34 | 42.69564 | -88.19240 | 33785 ft | 407 kts | 266° |
| 2026-05-03 21:35 | 42.68756 | -88.26865 | 33780 ft | 408 kts | 266° |
| 2026-05-03 21:35 | 42.67940 | -88.34497 | 33777 ft | 408 kts | 266° |
| 2026-05-03 21:36 | 42.67121 | -88.42129 | 33782 ft | 408 kts | 266° |
| 2026-05-03 21:36 | 42.66297 | -88.49761 | 33795 ft | 408 kts | 266° |
| 2026-05-03 21:37 | 42.65468 | -88.57390 | 33789 ft | 408 kts | 266° |
| 2026-05-03 21:37 | 42.64634 | -88.65013 | 33797 ft | 408 kts | 265° |
| 2026-05-03 21:38 | 42.63794 | -88.72632 | 33802 ft | 408 kts | 265° |
| 2026-05-03 21:38 | 42.62952 | -88.80245 | 33798 ft | 408 kts | 265° |
| 2026-05-03 21:39 | 42.62104 | -88.87837 | 33785 ft | 403 kts | 265° |
| 2026-05-03 21:39 | 42.61268 | -88.95250 | 33782 ft | 394 kts | 266° |
| 2026-05-03 21:40 | 42.60441 | -89.02600 | 33802 ft | 396 kts | 266° |
| 2026-05-03 21:40 | 42.59603 | -89.10005 | 33801 ft | 402 kts | 265° |
| 2026-05-03 21:41 | 42.58748 | -89.17489 | 33783 ft | 398 kts | 265° |
| 2026-05-03 21:41 | 42.57898 | -89.24848 | 33786 ft | 393 kts | 266° |
| 2026-05-03 21:42 | 42.57057 | -89.32147 | 33782 ft | 390 kts | 266° |
| 2026-05-03 21:42 | 42.56212 | -89.39415 | 33780 ft | 390 kts | 265° |
| 2026-05-03 21:43 | 42.55364 | -89.46673 | 33781 ft | 389 kts | 265° |
| 2026-05-03 21:43 | 42.54513 | -89.53932 | 33777 ft | 392 kts | 265° |
| 2026-05-03 21:44 | 42.53646 | -89.61286 | 33771 ft | 399 kts | 265° |
| 2026-05-03 21:44 | 42.52756 | -89.68779 | 33772 ft | 405 kts | 265° |
| 2026-05-03 21:45 | 42.51850 | -89.76350 | 33769 ft | 408 kts | 265° |
| 2026-05-03 21:45 | 42.50935 | -89.83942 | 33763 ft | 408 kts | 265° |
| 2026-05-03 21:46 | 42.50021 | -89.91491 | 33777 ft | 409 kts | 265° |
| 2026-05-03 21:46 | 42.49090 | -89.99145 | 33782 ft | 410 kts | 265° |
| 2026-05-03 21:47 | 42.48163 | -90.06719 | 33781 ft | 410 kts | 265° |
| 2026-05-03 21:47 | 42.47223 | -90.14349 | 33781 ft | 410 kts | 265° |
| 2026-05-03 21:48 | 42.46282 | -90.21954 | 33773 ft | 409 kts | 265° |
| 2026-05-03 21:48 | 42.45337 | -90.29554 | 33775 ft | 409 kts | 265° |
| 2026-05-03 21:49 | 42.44388 | -90.37138 | 33771 ft | 409 kts | 265° |
| 2026-05-03 21:49 | 42.43432 | -90.44729 | 33775 ft | 408 kts | 265° |
| 2026-05-03 21:50 | 42.42476 | -90.52273 | 33768 ft | 404 kts | 265° |
| 2026-05-03 21:50 | 42.41527 | -90.59731 | 33773 ft | 401 kts | 265° |
| 2026-05-03 21:51 | 42.40579 | -90.67175 | 33773 ft | 403 kts | 265° |
| 2026-05-03 21:51 | 42.39663 | -90.74665 | 33774 ft | 403 kts | 266° |
| 2026-05-03 21:52 | 42.38924 | -90.82182 | 33776 ft | 403 kts | 267° |
| 2026-05-03 21:52 | 42.38201 | -90.89711 | 33781 ft | 404 kts | 266° |
| 2026-05-03 21:53 | 42.37461 | -90.97221 | 33766 ft | 400 kts | 266° |
| 2026-05-03 21:53 | 42.36720 | -91.04554 | 33752 ft | 393 kts | 266° |
| 2026-05-03 21:54 | 42.35976 | -91.11854 | 33755 ft | 391 kts | 266° |
| 2026-05-03 21:54 | 42.35231 | -91.19119 | 33760 ft | 389 kts | 266° |
| 2026-05-03 21:55 | 42.34483 | -91.26356 | 33763 ft | 388 kts | 266° |
| 2026-05-03 21:55 | 42.33731 | -91.33591 | 33770 ft | 389 kts | 266° |
| 2026-05-03 21:56 | 42.32973 | -91.40835 | 33767 ft | 390 kts | 266° |
| 2026-05-03 21:56 | 42.32206 | -91.48109 | 33776 ft | 392 kts | 266° |
| 2026-05-03 21:57 | 42.31431 | -91.55421 | 33777 ft | 394 kts | 266° |
| 2026-05-03 21:57 | 42.30648 | -91.62746 | 33789 ft | 395 kts | 266° |
| 2026-05-03 21:58 | 42.29861 | -91.70095 | 33788 ft | 396 kts | 266° |
| 2026-05-03 21:58 | 42.29067 | -91.77449 | 33791 ft | 396 kts | 266° |
| 2026-05-03 21:59 | 42.28270 | -91.84791 | 33784 ft | 392 kts | 266° |
| 2026-05-03 21:59 | 42.27481 | -91.91978 | 33791 ft | 384 kts | 266° |
| 2026-05-03 22:00 | 42.26689 | -91.99073 | 33793 ft | 381 kts | 265° |
| 2026-05-03 22:00 | 42.25910 | -92.06114 | 33789 ft | 378 kts | 266° |
| 2026-05-03 22:01 | 42.25138 | -92.13192 | 33804 ft | 385 kts | 266° |
| 2026-05-03 22:01 | 42.24336 | -92.20388 | 33795 ft | 389 kts | 266° |
| 2026-05-03 22:02 | 42.23522 | -92.27602 | 33795 ft | 388 kts | 266° |
| 2026-05-03 22:02 | 42.22706 | -92.34794 | 33794 ft | 387 kts | 266° |
| 2026-05-03 22:03 | 42.21889 | -92.41953 | 33801 ft | 386 kts | 266° |
| 2026-05-03 22:03 | 42.21072 | -92.49082 | 33800 ft | 384 kts | 266° |
| 2026-05-03 22:04 | 42.20254 | -92.56185 | 33805 ft | 382 kts | 266° |
| 2026-05-03 22:04 | 42.19437 | -92.63237 | 33814 ft | 380 kts | 266° |
| 2026-05-03 22:05 | 42.18621 | -92.70249 | 33810 ft | 377 kts | 266° |
| 2026-05-03 22:05 | 42.17809 | -92.77181 | 33816 ft | 376 kts | 266° |
| 2026-05-03 22:06 | 42.16991 | -92.84139 | 33819 ft | 376 kts | 266° |
| 2026-05-03 22:06 | 42.16168 | -92.91098 | 33824 ft | 378 kts | 266° |
| 2026-05-03 22:07 | 42.15332 | -92.98155 | 33829 ft | 385 kts | 266° |
| 2026-05-03 22:07 | 42.14472 | -93.05346 | 33831 ft | 391 kts | 266° |
| 2026-05-03 22:08 | 42.13598 | -93.12590 | 33827 ft | 392 kts | 266° |
| 2026-05-03 22:08 | 42.12721 | -93.19834 | 33827 ft | 392 kts | 266° |
| 2026-05-03 22:09 | 42.11840 | -93.27069 | 33815 ft | 388 kts | 266° |
| 2026-05-03 22:10 | 42.10541 | -93.37671 | 33821 ft | 379 kts | 266° |
| 2026-05-03 22:10 | 42.09684 | -93.44650 | 33829 ft | 377 kts | 266° |
| 2026-05-03 22:11 | 42.08969 | -93.50423 | 33837 ft | 375 kts | 266° |
| 2026-05-03 22:11 | 42.07964 | -93.58475 | 33842 ft | 376 kts | 266° |
| 2026-05-03 22:12 | 42.07090 | -93.65420 | 33840 ft | 377 kts | 266° |
| 2026-05-03 22:12 | 42.06210 | -93.72380 | 33832 ft | 378 kts | 266° |
| 2026-05-03 22:13 | 42.05467 | -93.78241 | 33833 ft | 379 kts | 266° |
| 2026-05-03 22:13 | 42.04573 | -93.85243 | 33833 ft | 380 kts | 266° |
| 2026-05-03 22:14 | 42.03672 | -93.92272 | 33837 ft | 382 kts | 266° |
| 2026-05-03 22:14 | 42.02765 | -93.99317 | 33835 ft | 382 kts | 266° |
| 2026-05-03 22:15 | 42.01853 | -94.06361 | 33842 ft | 382 kts | 266° |
| 2026-05-03 22:15 | 42.00941 | -94.13366 | 33851 ft | 383 kts | 266° |
| 2026-05-03 22:16 | 42.00019 | -94.20410 | 33856 ft | 382 kts | 266° |
| 2026-05-03 22:16 | 41.99093 | -94.27450 | 33849 ft | 383 kts | 266° |
| 2026-05-03 22:17 | 41.98165 | -94.34489 | 33854 ft | 382 kts | 266° |
| 2026-05-03 22:17 | 41.97233 | -94.41506 | 33862 ft | 381 kts | 266° |
| 2026-05-03 22:18 | 41.96297 | -94.48520 | 33867 ft | 381 kts | 266° |
| 2026-05-03 22:18 | 41.95358 | -94.55540 | 34023 ft | 383 kts | 266° |
| 2026-05-03 22:18 | 41.94884 | -94.59066 | 34240 ft | 384 kts | 266° |
| 2026-05-03 22:19 | 41.94408 | -94.62589 | 34485 ft | 383 kts | 266° |
| 2026-05-03 22:19 | 41.93933 | -94.66110 | 34677 ft | 383 kts | 266° |
| 2026-05-03 22:19 | 41.93455 | -94.69637 | 34834 ft | 385 kts | 266° |
| 2026-05-03 22:19 | 41.92975 | -94.73177 | 34989 ft | 386 kts | 265° |
| 2026-05-03 22:20 | 41.92493 | -94.76726 | 35171 ft | 386 kts | 265° |
| 2026-05-03 22:20 | 41.92010 | -94.80266 | 35449 ft | 384 kts | 265° |
| 2026-05-03 22:20 | 41.91527 | -94.83785 | 35732 ft | 383 kts | 265° |
| 2026-05-03 22:20 | 41.91045 | -94.87294 | 35869 ft | 383 kts | 265° |
| 2026-05-03 22:21 | 41.90560 | -94.90830 | 35871 ft | 386 kts | 265° |
| 2026-05-03 22:21 | 41.89582 | -94.97921 | 35879 ft | 385 kts | 265° |
| 2026-05-03 22:22 | 41.88606 | -95.04964 | 35879 ft | 382 kts | 265° |
| 2026-05-03 22:22 | 41.87631 | -95.11960 | 35874 ft | 380 kts | 265° |
| 2026-05-03 22:23 | 41.86667 | -95.18845 | 35880 ft | 377 kts | 265° |
| 2026-05-03 22:23 | 41.85694 | -95.25787 | 35884 ft | 382 kts | 265° |
| 2026-05-03 22:24 | 41.84702 | -95.32830 | 35874 ft | 383 kts | 265° |
| 2026-05-03 22:24 | 41.83710 | -95.39792 | 35879 ft | 377 kts | 265° |
| 2026-05-03 22:25 | 41.82726 | -95.46690 | 35880 ft | 376 kts | 265° |
| 2026-05-03 22:25 | 41.81743 | -95.53558 | 35878 ft | 375 kts | 265° |
| 2026-05-03 22:26 | 41.80760 | -95.60404 | 35879 ft | 374 kts | 265° |
| 2026-05-03 22:26 | 41.79774 | -95.67235 | 35869 ft | 372 kts | 265° |
| 2026-05-03 22:27 | 41.78788 | -95.74035 | 35878 ft | 371 kts | 265° |
| 2026-05-03 22:27 | 41.77799 | -95.80829 | 35880 ft | 372 kts | 265° |
| 2026-05-03 22:28 | 41.76805 | -95.87628 | 35879 ft | 372 kts | 265° |
| 2026-05-03 22:28 | 41.75814 | -95.94381 | 35879 ft | 372 kts | 265° |
| 2026-05-03 22:29 | 41.74809 | -96.01190 | 35879 ft | 373 kts | 265° |
| 2026-05-03 22:29 | 41.73798 | -96.08021 | 35880 ft | 375 kts | 265° |
| 2026-05-03 22:30 | 41.72777 | -96.14873 | 35878 ft | 376 kts | 265° |
| 2026-05-03 22:30 | 41.71750 | -96.21750 | 35879 ft | 377 kts | 265° |
| 2026-05-03 22:31 | 41.70711 | -96.28654 | 35881 ft | 379 kts | 265° |
| 2026-05-03 22:31 | 41.69668 | -96.35575 | 35881 ft | 380 kts | 265° |
| 2026-05-03 22:32 | 41.68619 | -96.42504 | 35874 ft | 380 kts | 265° |
| 2026-05-03 22:32 | 41.67564 | -96.49445 | 35888 ft | 381 kts | 264° |
| 2026-05-03 22:33 | 41.66505 | -96.56380 | 35891 ft | 381 kts | 264° |
| 2026-05-03 22:33 | 41.65442 | -96.63311 | 35890 ft | 380 kts | 264° |
| 2026-05-03 22:34 | 41.64373 | -96.70241 | 35885 ft | 380 kts | 264° |
| 2026-05-03 22:34 | 41.63304 | -96.77153 | 35887 ft | 380 kts | 264° |
| 2026-05-03 22:35 | 41.62238 | -96.84020 | 35890 ft | 379 kts | 264° |
| 2026-05-03 22:35 | 41.61163 | -96.90918 | 35898 ft | 379 kts | 264° |
| 2026-05-03 22:36 | 41.60084 | -96.97812 | 35896 ft | 379 kts | 264° |
| 2026-05-03 22:36 | 41.58998 | -97.04713 | 35905 ft | 379 kts | 264° |
| 2026-05-03 22:37 | 41.57910 | -97.11608 | 35901 ft | 380 kts | 264° |
| 2026-05-03 22:37 | 41.56815 | -97.18512 | 35907 ft | 380 kts | 264° |
| 2026-05-03 22:38 | 41.55715 | -97.25425 | 35906 ft | 381 kts | 264° |
| 2026-05-03 22:38 | 41.54608 | -97.32349 | 35907 ft | 382 kts | 264° |
| 2026-05-03 22:39 | 41.53493 | -97.39298 | 35902 ft | 383 kts | 264° |
| 2026-05-03 22:39 | 41.52370 | -97.46255 | 35910 ft | 383 kts | 264° |
| 2026-05-03 22:40 | 41.51249 | -97.53172 | 35896 ft | 379 kts | 264° |
| 2026-05-03 22:40 | 41.50139 | -97.60008 | 35901 ft | 375 kts | 264° |
| 2026-05-03 22:41 | 41.49032 | -97.66795 | 35904 ft | 373 kts | 264° |
| 2026-05-03 22:41 | 41.47927 | -97.73546 | 35908 ft | 372 kts | 264° |
| 2026-05-03 22:42 | 41.46818 | -97.80295 | 35912 ft | 373 kts | 264° |
| 2026-05-03 22:42 | 41.45710 | -97.87023 | 35918 ft | 375 kts | 263° |
| 2026-05-03 22:43 | 41.44580 | -97.93843 | 35919 ft | 379 kts | 263° |
| 2026-05-03 22:43 | 41.43442 | -98.00678 | 35895 ft | 375 kts | 263° |
| 2026-05-03 22:44 | 41.42312 | -98.07440 | 35899 ft | 373 kts | 263° |
| 2026-05-03 22:44 | 41.41185 | -98.14163 | 35909 ft | 371 kts | 263° |
| 2026-05-03 22:45 | 41.40059 | -98.20859 | 35917 ft | 370 kts | 263° |
| 2026-05-03 22:45 | 41.38929 | -98.27559 | 35917 ft | 372 kts | 263° |
| 2026-05-03 22:46 | 41.37788 | -98.34293 | 35921 ft | 374 kts | 263° |
| 2026-05-03 22:46 | 41.36300 | -98.40998 | 35919 ft | 381 kts | 258° |
| 2026-05-03 22:47 | 41.34628 | -98.47722 | 35919 ft | 384 kts | 257° |
| 2026-05-03 22:47 | 41.32940 | -98.54487 | 35916 ft | 386 kts | 258° |
| 2026-05-03 22:48 | 41.31255 | -98.61289 | 35912 ft | 388 kts | 258° |
| 2026-05-03 22:48 | 41.29569 | -98.68112 | 35915 ft | 389 kts | 258° |
| 2026-05-03 22:49 | 41.27875 | -98.74951 | 35911 ft | 389 kts | 257° |
| 2026-05-03 22:49 | 41.26188 | -98.81742 | 35906 ft | 390 kts | 257° |
| 2026-05-03 22:50 | 41.24487 | -98.88574 | 35910 ft | 389 kts | 257° |
| 2026-05-03 22:50 | 41.22785 | -98.95390 | 35908 ft | 388 kts | 257° |
| 2026-05-03 22:51 | 41.21084 | -99.02184 | 35905 ft | 387 kts | 257° |
| 2026-05-03 22:51 | 41.19381 | -99.08966 | 35898 ft | 387 kts | 257° |
| 2026-05-03 22:52 | 41.17676 | -99.15739 | 35900 ft | 386 kts | 257° |
| 2026-05-03 22:52 | 41.15970 | -99.22503 | 35906 ft | 386 kts | 257° |
| 2026-05-03 22:53 | 41.14264 | -99.29242 | 35904 ft | 386 kts | 257° |
| 2026-05-03 22:53 | 41.12548 | -99.36004 | 35897 ft | 387 kts | 257° |
| 2026-05-03 22:54 | 41.10824 | -99.42773 | 35905 ft | 389 kts | 257° |
| 2026-05-03 22:54 | 41.09088 | -99.49570 | 35904 ft | 390 kts | 257° |
| 2026-05-03 22:55 | 41.07340 | -99.56389 | 35903 ft | 391 kts | 256° |
| 2026-05-03 22:55 | 41.05587 | -99.63222 | 35904 ft | 392 kts | 256° |
| 2026-05-03 22:56 | 41.03819 | -99.70085 | 35910 ft | 394 kts | 256° |
| 2026-05-03 22:56 | 41.02040 | -99.76973 | 35907 ft | 396 kts | 256° |
| 2026-05-03 22:57 | 41.00262 | -99.83838 | 35906 ft | 397 kts | 256° |
| 2026-05-03 22:57 | 40.98466 | -99.90762 | 35896 ft | 398 kts | 256° |
| 2026-05-03 22:58 | 40.96661 | -99.97689 | 35898 ft | 399 kts | 256° |
| 2026-05-03 22:58 | 40.94850 | -100.04618 | 35894 ft | 399 kts | 256° |
| 2026-05-03 22:59 | 40.93034 | -100.11544 | 35890 ft | 398 kts | 256° |
| 2026-05-03 22:59 | 40.91219 | -100.18458 | 35888 ft | 398 kts | 256° |
| 2026-05-03 23:00 | 40.89402 | -100.25361 | 35888 ft | 398 kts | 255° |
| 2026-05-03 23:00 | 40.87576 | -100.32263 | 35882 ft | 398 kts | 255° |
| 2026-05-03 23:01 | 40.85749 | -100.39156 | 35888 ft | 398 kts | 255° |
| 2026-05-03 23:01 | 40.83912 | -100.46074 | 35660 ft | 404 kts | 255° |
| 2026-05-03 23:01 | 40.82980 | -100.49581 | 35418 ft | 405 kts | 255° |
| 2026-05-03 23:02 | 40.82044 | -100.53090 | 35162 ft | 404 kts | 255° |
| 2026-05-03 23:02 | 40.81113 | -100.56572 | 34911 ft | 402 kts | 255° |
| 2026-05-03 23:02 | 40.80186 | -100.60043 | 34666 ft | 401 kts | 255° |
| 2026-05-03 23:02 | 40.79257 | -100.63516 | 34426 ft | 401 kts | 255° |
| 2026-05-03 23:03 | 40.78350 | -100.67000 | 34181 ft | 400 kts | 258° |
| 2026-05-03 23:03 | 40.77655 | -100.70547 | 33972 ft | 399 kts | 261° |
| 2026-05-03 23:03 | 40.77081 | -100.74118 | 33931 ft | 398 kts | 262° |
| 2026-05-03 23:04 | 40.76163 | -100.80067 | 33901 ft | 397 kts | 262° |
| 2026-05-03 23:04 | 40.75015 | -100.87120 | 33882 ft | 389 kts | 261° |
| 2026-05-03 23:05 | 40.73842 | -100.94039 | 33891 ft | 385 kts | 261° |
| 2026-05-03 23:05 | 40.72487 | -101.01938 | 33897 ft | 375 kts | 261° |
| 2026-05-03 23:06 | 40.71523 | -101.07546 | 33906 ft | 374 kts | 261° |
| 2026-05-03 23:06 | 40.70368 | -101.14229 | 33902 ft | 374 kts | 261° |
| 2026-05-03 23:07 | 40.69206 | -101.20898 | 33905 ft | 373 kts | 261° |
| 2026-05-03 23:07 | 40.68035 | -101.27565 | 33908 ft | 374 kts | 261° |
| 2026-05-03 23:08 | 40.66859 | -101.34251 | 33917 ft | 375 kts | 260° |
| 2026-05-03 23:08 | 40.65677 | -101.40952 | 33918 ft | 376 kts | 260° |
| 2026-05-03 23:09 | 40.64487 | -101.47669 | 33912 ft | 377 kts | 260° |
| 2026-05-03 23:09 | 40.63291 | -101.54405 | 33920 ft | 378 kts | 260° |
| 2026-05-03 23:10 | 40.62089 | -101.61145 | 33917 ft | 379 kts | 260° |
| 2026-05-03 23:10 | 40.60890 | -101.67850 | 33914 ft | 379 kts | 260° |
| 2026-05-03 23:11 | 40.59678 | -101.74597 | 33912 ft | 379 kts | 260° |
| 2026-05-03 23:11 | 40.58464 | -101.81339 | 33913 ft | 378 kts | 259° |
| 2026-05-03 23:12 | 40.57247 | -101.88070 | 33913 ft | 378 kts | 259° |
| 2026-05-03 23:12 | 40.56028 | -101.94789 | 33910 ft | 377 kts | 259° |
| 2026-05-03 23:13 | 40.54804 | -102.01487 | 33909 ft | 377 kts | 259° |
| 2026-05-03 23:13 | 40.53565 | -102.08172 | 33897 ft | 376 kts | 259° |
| 2026-05-03 23:14 | 40.52323 | -102.14842 | 33902 ft | 375 kts | 259° |
| 2026-05-03 23:14 | 40.51080 | -102.21498 | 33892 ft | 375 kts | 259° |
| 2026-05-03 23:15 | 40.49836 | -102.28150 | 33890 ft | 374 kts | 259° |
| 2026-05-03 23:15 | 40.48590 | -102.34789 | 33891 ft | 374 kts | 259° |
| 2026-05-03 23:16 | 40.47342 | -102.41416 | 33895 ft | 374 kts | 259° |
| 2026-05-03 23:16 | 40.46717 | -102.44731 | 33755 ft | 378 kts | 259° |
| 2026-05-03 23:16 | 40.46079 | -102.48115 | 33202 ft | 383 kts | 259° |
| 2026-05-03 23:16 | 40.45434 | -102.51523 | 32578 ft | 385 kts | 259° |
| 2026-05-03 23:17 | 40.44785 | -102.54938 | 31937 ft | 387 kts | 259° |
| 2026-05-03 23:17 | 40.44133 | -102.58376 | 31257 ft | 389 kts | 259° |
| 2026-05-03 23:17 | 40.43474 | -102.61840 | 30568 ft | 392 kts | 259° |
| 2026-05-03 23:17 | 40.42810 | -102.65312 | 30025 ft | 392 kts | 259° |
| 2026-05-03 23:18 | 40.42148 | -102.68756 | 29611 ft | 385 kts | 259° |
| 2026-05-03 23:18 | 40.41498 | -102.72130 | 29262 ft | 378 kts | 259° |
| 2026-05-03 23:18 | 40.40857 | -102.75446 | 28975 ft | 373 kts | 259° |
| 2026-05-03 23:18 | 40.40225 | -102.78725 | 28678 ft | 382 kts | 259° |
| 2026-05-03 23:19 | 40.39562 | -102.82177 | 28372 ft | 398 kts | 259° |
| 2026-05-03 23:19 | 40.38873 | -102.85753 | 28033 ft | 407 kts | 259° |
| 2026-05-03 23:19 | 40.38172 | -102.89355 | 27686 ft | 407 kts | 259° |
| 2026-05-03 23:19 | 40.37477 | -102.92912 | 27340 ft | 396 kts | 259° |
| 2026-05-03 23:20 | 40.36805 | -102.96351 | 27058 ft | 382 kts | 259° |
| 2026-05-03 23:20 | 40.36156 | -102.99668 | 26730 ft | 370 kts | 259° |
| 2026-05-03 23:20 | 40.35529 | -103.02890 | 26468 ft | 363 kts | 259° |
| 2026-05-03 23:20 | 40.34906 | -103.06096 | 26172 ft | 364 kts | 259° |
| 2026-05-03 23:21 | 40.34277 | -103.09346 | 25910 ft | 374 kts | 259° |
| 2026-05-03 23:21 | 40.33630 | -103.12680 | 25612 ft | 381 kts | 259° |
| 2026-05-03 23:21 | 40.32978 | -103.16021 | 25302 ft | 380 kts | 259° |
| 2026-05-03 23:21 | 40.32325 | -103.19355 | 24992 ft | 378 kts | 259° |
| 2026-05-03 23:22 | 40.31019 | -103.26019 | 24382 ft | 375 kts | 258° |
| 2026-05-03 23:22 | 40.30368 | -103.29321 | 24086 ft | 373 kts | 258° |
| 2026-05-03 23:22 | 40.29717 | -103.32591 | 23779 ft | 369 kts | 258° |
| 2026-05-03 23:23 | 40.29070 | -103.35829 | 23491 ft | 367 kts | 258° |
| 2026-05-03 23:23 | 40.28425 | -103.39062 | 23102 ft | 366 kts | 258° |
| 2026-05-03 23:23 | 40.27783 | -103.42278 | 22796 ft | 364 kts | 258° |
| 2026-05-03 23:23 | 40.27144 | -103.45474 | 22488 ft | 362 kts | 258° |
| 2026-05-03 23:24 | 40.26510 | -103.48649 | 22197 ft | 359 kts | 258° |
| 2026-05-03 23:24 | 40.25878 | -103.51803 | 21878 ft | 358 kts | 258° |
| 2026-05-03 23:24 | 40.25246 | -103.54952 | 21605 ft | 357 kts | 258° |
| 2026-05-03 23:24 | 40.24615 | -103.58099 | 21329 ft | 357 kts | 258° |
| 2026-05-03 23:25 | 40.23992 | -103.61233 | 21047 ft | 356 kts | 258° |
| 2026-05-03 23:25 | 40.23373 | -103.64365 | 20757 ft | 356 kts | 258° |
| 2026-05-03 23:25 | 40.22753 | -103.67502 | 20481 ft | 356 kts | 258° |
| 2026-05-03 23:25 | 40.22133 | -103.70632 | 20194 ft | 356 kts | 257° |
| 2026-05-03 23:26 | 40.21511 | -103.73764 | 19915 ft | 355 kts | 257° |
| 2026-05-03 23:26 | 40.20890 | -103.76883 | 19632 ft | 355 kts | 257° |
| 2026-05-03 23:26 | 40.20266 | -103.80017 | 19338 ft | 354 kts | 257° |
| 2026-05-03 23:26 | 40.19646 | -103.83127 | 19057 ft | 353 kts | 257° |
| 2026-05-03 23:27 | 40.19086 | -103.85925 | 18799 ft | 349 kts | 257° |
| 2026-05-03 23:27 | 40.18476 | -103.88965 | 18496 ft | 343 kts | 257° |
| 2026-05-03 23:27 | 40.17709 | -103.91886 | 18194 ft | 339 kts | 244° |
| 2026-05-03 23:27 | 40.16512 | -103.94513 | 17908 ft | 333 kts | 240° |
| 2026-05-03 23:28 | 40.15282 | -103.97039 | 17624 ft | 326 kts | 239° |
| 2026-05-03 23:28 | 40.14075 | -103.99513 | 17337 ft | 320 kts | 240° |
| 2026-05-03 23:28 | 40.12896 | -104.01954 | 17079 ft | 316 kts | 240° |
| 2026-05-03 23:28 | 40.11738 | -104.04375 | 16826 ft | 313 kts | 240° |
| 2026-05-03 23:29 | 40.10594 | -104.06781 | 16565 ft | 311 kts | 240° |
| 2026-05-03 23:29 | 40.09461 | -104.09174 | 16305 ft | 309 kts | 240° |
| 2026-05-03 23:29 | 40.08331 | -104.11558 | 16047 ft | 307 kts | 240° |
| 2026-05-03 23:29 | 40.07208 | -104.13928 | 15796 ft | 306 kts | 240° |
| 2026-05-03 23:30 | 40.06089 | -104.16285 | 15545 ft | 305 kts | 240° |
| 2026-05-03 23:30 | 40.04969 | -104.18636 | 15304 ft | 305 kts | 240° |
| 2026-05-03 23:30 | 40.03855 | -104.20979 | 15057 ft | 303 kts | 240° |
| 2026-05-03 23:30 | 40.02772 | -104.23268 | 14836 ft | 304 kts | 241° |
| 2026-05-03 23:31 | 40.01746 | -104.25457 | 14616 ft | 304 kts | 240° |
| 2026-05-03 23:31 | 40.00623 | -104.27790 | 14381 ft | 304 kts | 239° |
| 2026-05-03 23:31 | 39.99501 | -104.30122 | 14154 ft | 303 kts | 239° |
| 2026-05-03 23:31 | 39.98388 | -104.32465 | 13924 ft | 304 kts | 240° |
| 2026-05-03 23:32 | 39.97267 | -104.34806 | 13689 ft | 304 kts | 240° |
| 2026-05-03 23:32 | 39.96146 | -104.37143 | 13431 ft | 304 kts | 239° |
| 2026-05-03 23:32 | 39.95026 | -104.39478 | 13184 ft | 304 kts | 240° |
| 2026-05-03 23:32 | 39.93907 | -104.41809 | 12947 ft | 302 kts | 239° |
| 2026-05-03 23:33 | 39.92797 | -104.44131 | 12702 ft | 302 kts | 240° |
| 2026-05-03 23:33 | 39.91692 | -104.46451 | 12467 ft | 301 kts | 240° |
| 2026-05-03 23:33 | 39.90370 | -104.48558 | 12213 ft | 303 kts | 220° |
| 2026-05-03 23:33 | 39.88519 | -104.49803 | 11994 ft | 301 kts | 196° |
| 2026-05-03 23:34 | 39.86452 | -104.50071 | 11782 ft | 297 kts | 182° |
| 2026-05-03 23:34 | 39.84401 | -104.50076 | 11530 ft | 292 kts | 181° |
| 2026-05-03 23:34 | 39.82401 | -104.50078 | 11344 ft | 282 kts | 182° |
| 2026-05-03 23:34 | 39.80469 | -104.50095 | 11085 ft | 273 kts | 182° |
| 2026-05-03 23:35 | 39.78599 | -104.50116 | 10755 ft | 266 kts | 182° |
| 2026-05-03 23:35 | 39.76777 | -104.50138 | 10463 ft | 258 kts | 182° |
| 2026-05-03 23:35 | 39.75009 | -104.50160 | 10159 ft | 250 kts | 183° |
| 2026-05-03 23:35 | 39.73306 | -104.50387 | 9828 ft | 243 kts | 196° |
| 2026-05-03 23:36 | 39.71798 | -104.51230 | 9497 ft | 232 kts | 216° |
| 2026-05-03 23:36 | 39.70647 | -104.52599 | 9209 ft | 220 kts | 234° |
| 2026-05-03 23:36 | 39.69902 | -104.54265 | 8949 ft | 208 kts | 250° |
| 2026-05-03 23:36 | 39.69529 | -104.56041 | 8693 ft | 201 kts | 263° |
| 2026-05-03 23:37 | 39.69487 | -104.57837 | 8459 ft | 198 kts | 276° |
| 2026-05-03 23:37 | 39.69768 | -104.59554 | 8223 ft | 199 kts | 290° |
| 2026-05-03 23:37 | 39.70391 | -104.61160 | 7997 ft | 201 kts | 303° |
| 2026-05-03 23:37 | 39.71304 | -104.62526 | 7741 ft | 200 kts | 317° |
| 2026-05-03 23:38 | 39.72473 | -104.63554 | 7486 ft | 201 kts | 333° |
| 2026-05-03 23:38 | 39.73787 | -104.64096 | 7243 ft | 200 kts | 350° |
| 2026-05-03 23:38 | 39.75140 | -104.64243 | 7023 ft | 190 kts | 356° |
| 2026-05-03 23:38 | 39.76425 | -104.64255 | 6759 ft | 178 kts | 359° |
| 2026-05-03 23:39 | 39.77616 | -104.64240 | 6550 ft | 168 kts | 359° |
| 2026-05-03 23:39 | 39.78719 | -104.64225 | 6327 ft | 165 kts | 358° |
| 2026-05-03 23:39 | 39.79873 | -104.64211 | 6103 ft | 169 kts | 356° |
| 2026-05-03 23:39 | 39.81054 | -104.64187 | 5906 ft | 169 kts | 357° |
| 2026-05-03 23:40 | 39.82216 | -104.64176 | 5623 ft | 165 kts | 354° |
| 2026-05-03 23:40 | 39.83345 | -104.64168 | 5392 ft | 160 kts | 355° |
| 2026-05-03 23:40 | 39.84357 | -104.64158 | 5364 ft | 118 kts | 0° |
| 2026-05-03 23:40 | 39.84971 | -104.64152 | 5359 ft | 65 kts | 360° |
| 2026-05-03 23:41 | 39.85347 | -104.64148 | 5355 ft | 40 kts | 359° |
| 2026-05-03 23:41 | 39.85591 | -104.64221 | 5353 ft | 34 kts | 332° |
| 2026-05-03 23:41 | 39.85789 | -104.64363 | 5351 ft | 31 kts | 330° |
| 2026-05-03 23:41 | 39.85968 | -104.64495 | 5350 ft | 29 kts | 330° |
| 2026-05-03 23:42 | 39.86138 | -104.64617 | 5350 ft | 27 kts | 330° |
| 2026-05-03 23:42 | 39.86296 | -104.64735 | 5348 ft | 25 kts | 331° |
| 2026-05-03 23:42 | 39.86445 | -104.64842 | 5353 ft | 24 kts | 330° |
| 2026-05-03 23:42 | 39.86492 | -104.65026 | 5358 ft | 23 kts | 271° |
| 2026-05-03 23:43 | 39.86493 | -104.65228 | 5362 ft | 22 kts | 271° |
| 2026-05-03 23:43 | 39.86495 | -104.65424 | 5366 ft | 21 kts | 270° |
| 2026-05-03 23:43 | 39.86496 | -104.65614 | 5369 ft | 21 kts | 270° |
| 2026-05-03 23:43 | 39.86497 | -104.65799 | 5370 ft | 20 kts | 270° |
| 2026-05-03 23:44 | 39.86499 | -104.65978 | 5378 ft | 19 kts | 270° |
| 2026-05-03 23:44 | 39.86500 | -104.66151 | 5382 ft | 19 kts | 270° |
| 2026-05-03 23:44 | 39.86490 | -104.66316 | 5377 ft | 18 kts | 236° |
| 2026-05-03 23:44 | 39.86371 | -104.66342 | 5379 ft | 18 kts | 180° |
| 2026-05-03 23:45 | 39.86250 | -104.66343 | 5377 ft | 17 kts | 180° |
| 2026-05-03 23:45 | 39.86134 | -104.66345 | 5377 ft | 16 kts | 181° |
| 2026-05-03 23:45 | 39.86023 | -104.66346 | 5384 ft | 16 kts | 181° |
| 2026-05-03 23:45 | 39.85900 | -104.66347 | 5384 ft | 20 kts | 181° |
| 2026-05-03 23:46 | 39.85757 | -104.66349 | 5384 ft | 20 kts | 180° |
| 2026-05-03 23:46 | 39.85619 | -104.66351 | 5388 ft | 20 kts | 181° |
| 2026-05-03 23:46 | 39.85485 | -104.66352 | 5392 ft | 19 kts | 180° |
| 2026-05-03 23:46 | 39.85355 | -104.66355 | 5393 ft | 18 kts | 180° |
| 2026-05-03 23:47 | 39.85232 | -104.66362 | 5393 ft | 18 kts | 204° |
| 2026-05-03 23:47 | 39.85207 | -104.66501 | 5389 ft | 17 kts | 275° |
| 2026-05-03 23:47 | 39.85230 | -104.66647 | 5385 ft | 17 kts | 271° |
| 2026-05-03 23:47 | 39.85232 | -104.66800 | 5382 ft | 17 kts | 270° |
| 2026-05-03 23:48 | 39.85233 | -104.66947 | 5382 ft | 16 kts | 270° |
| 2026-05-03 23:48 | 39.85234 | -104.67089 | 5382 ft | 15 kts | 270° |
| 2026-05-03 23:48 | 39.85235 | -104.67226 | 5382 ft | 15 kts | 270° |
| 2026-05-03 23:48 | 39.85236 | -104.67357 | 5382 ft | 14 kts | 270° |
| 2026-05-03 23:49 | 39.85236 | -104.67483 | 5382 ft | 14 kts | 271° |
| 2026-05-03 23:49 | 39.85238 | -104.67603 | 5382 ft | 13 kts | 271° |
| 2026-05-03 23:49 | 39.85239 | -104.67718 | 5382 ft | 13 kts | 270° |
| 2026-05-03 23:49 | 39.85278 | -104.67774 | 5382 ft | 10 kts | 7° |
| 2026-05-03 23:50 | 39.85327 | -104.67771 | 5382 ft | 0 kts | 0° |
| 2026-05-03 23:50 | 39.85331 | -104.67771 | 5382 ft | 3 kts | 0° |
| 2026-05-03 23:50 | 39.85339 | -104.67771 | 5382 ft | 0 kts | 1° |
| 2026-05-03 23:53 | 39.85338 | -104.67758 | 5380 ft | 0 kts | 27° |